Terminal Aerodrome Forecast
Issued by NWS

Home | Current Version | Previous Version | Graphics & Text | Print | Product List | Glossary On
Versions: 1 2 3 4 5 6 7 8 9 10 11 12 13 14 15 16 17 18 19 20 21 22 23
248
FTUS43 KBIS 220522
TAFDIK
TAF
KDIK 220522Z 2206/2306 16009KT P6SM SKC
     FM221200 10009KT P6SM SCT130
     FM221800 10012KT P6SM -SHRA VCTS BKN090CB
     FM230000 11014G21KT P6SM VCSH BKN100
     FM230500 13016G24KT P6SM SCT005 BKN100=

USA.gov is the U.S. government's official web portal to all federal, state and local government web resources and services.